»·PEaware :: SKULL71 KLSV-KIFP

SKULL71 :: KLSV-KIFP

FLIGHT INFORMATION

Flight Status: Arrived
Operator: Unknown
More flights by this operator :: More flights under this callsign
Pilot: Chris S. (2433)
Aircraft: FAIRCHILD A-10 THUNDERBOLT 2
(A10)
More flights by this aircraft type
Origin: KLSV Nellis AFB
United States
Destination: KIFP Laughlin/Bullhead Intl
United States
More flights between these airports :: More routes between these airports
Route: BLD V237 EED
File this flight plan on PilotEdge
Remarks:
Altitude:
(Current/Filed)
15,000ft
Speed:
(Current/Filed)
280kts
Departed: 21-May-17 05:34 PM
Arrived: 21-May-17 06:03 PM
Distance/Time
Traveled:
68nm/0:29
Distance/Time
To Go:
Arrived

Flight Plot

Page will automatically refresh every two minutes.

Flight plan parsing failed; only flown route is shown


Map Options




Map Legend


Flown Route
Filed Route
Departure Airport
Arrival Airport
Navaid (VOR, NDB)
Fix

Horizontal Profiles

Position Reports

Time Latitude Longitude Heading Altitude Ground
Speed
21-May-17 17:17 36.229865 -115.024945 87 1850ft 0kts
21-May-17 17:18 36.229865 -115.024945 87 1850ft 0kts
21-May-17 17:19 36.229865 -115.024945 87 1850ft 0kts
21-May-17 17:20 36.229865 -115.024945 87 1850ft 0kts
21-May-17 17:21 36.229865 -115.024945 87 1850ft 0kts
21-May-17 17:22 36.230216 -115.025925 305 1850ft 8kts
21-May-17 17:23 36.230707 -115.029484 269 1850ft 12kts
21-May-17 17:24 36.233129 -115.031156 3 1850ft 15kts
21-May-17 17:25 36.236158 -115.028436 40 1852ft 16kts
21-May-17 17:26 36.239598 -115.024707 39 1854ft 14kts
21-May-17 17:27 36.242552 -115.020695 98 1858ft 9kts
21-May-17 17:28 36.242602 -115.019938 0 1858ft 0kts
21-May-17 17:29 36.241819 -115.022305 220 1856ft 26kts
21-May-17 17:30 36.237627 -115.026906 221 1853ft 25kts
21-May-17 17:31 36.230202 -115.032197 223 1850ft 23kts
21-May-17 17:32 36.225637 -115.037153 218 1850ft 30kts
21-May-17 17:33 36.223976 -115.042726 316 1848ft 16kts
21-May-17 17:34 36.224422 -115.043237 313 1848ft 0kts
21-May-17 17:35 36.225216 -115.043711 21 1849ft 15kts
21-May-17 17:36 36.251138 -115.016151 37 2794ft 218kts
21-May-17 17:37 36.305510 -115.010264 308 6722ft 245kts
21-May-17 17:38 36.353464 -115.074651 326 8636ft 256kts
21-May-17 17:39 36.421592 -115.116788 355 11290ft 282kts
21-May-17 17:40 36.412856 -115.054521 164 13543ft 306kts
21-May-17 17:41 36.329448 -115.015924 157 15032ft 324kts
21-May-17 17:42 36.239495 -114.971288 156 14972ft 361kts
21-May-17 17:43 36.145062 -114.924240 156 14970ft 368kts
21-May-17 17:44 36.048956 -114.878529 165 14938ft 371kts
21-May-17 17:45 35.947904 -114.848614 165 14931ft 371kts
21-May-17 17:46 35.847380 -114.818927 165 14931ft 371kts
21-May-17 17:47 35.748108 -114.783082 161 14909ft 371kts
21-May-17 17:48 35.649191 -114.745796 161 14909ft 371kts
21-May-17 17:49 35.550233 -114.708575 161 14909ft 371kts
21-May-17 17:50 35.450705 -114.673908 163 14897ft 371kts
21-May-17 17:51 35.350753 -114.641038 163 14897ft 371kts
21-May-17 17:52 35.250470 -114.608397 163 14897ft 371kts
21-May-17 17:53 35.148420 -114.588669 170 14892ft 371kts
21-May-17 17:54 35.045846 -114.571578 170 14891ft 371kts
21-May-17 17:55 34.944187 -114.543027 160 13529ft 395kts
21-May-17 17:56 34.850456 -114.507045 160 9617ft 306kts
21-May-17 17:57 34.775387 -114.479064 162 6460ft 269kts
21-May-17 17:58 34.794714 -114.441306 325 5959ft 291kts
21-May-17 17:59 34.853003 -114.494178 319 5655ft 252kts
21-May-17 18:00 34.921767 -114.515116 349 5192ft 262kts
21-May-17 18:01 34.993611 -114.529881 349 4042ft 260kts
21-May-17 18:02 35.056511 -114.545495 344 2682ft 196kts
21-May-17 18:03 35.105116 -114.556507 357 1953ft 149kts
21-May-17 18:04 35.142883 -114.558565 355 809ft 120kts
21-May-17 18:05 35.161339 -114.559803 2 663ft 29kts
21-May-17 18:06 35.163350 -114.558615 352 663ft 14kts
21-May-17 18:07 35.165109 -114.556348 88 663ft 0kts
21-May-17 18:08 35.165109 -114.556348 88 663ft 0kts
21-May-17 18:09 35.165109 -114.556348 88 663ft 0kts
21-May-17 18:10 35.165109 -114.556348 88 663ft 0kts
21-May-17 18:11 35.165109 -114.556342 89 663ft 0kts
21-May-17 18:12 35.165105 -114.555984 90 663ft 0kts
21-May-17 18:13 35.165105 -114.555983 90 663ft 0kts
21-May-17 18:14 35.165105 -114.555983 90 663ft 0kts

Navigation Log

Ident Type
Flight plan parsing failed, navigation log unavailable